Time;durP1;ratioP1;P1;durP2;ratioP2;P2;SDS_P1;SDS_P2;PMS_P1;PMS_P2;Temp;Humidity;BMP_temperature;BMP_pressure;BME280_temperature;BME280_humidity;BME280_pressure;Samples;Min_cycle;Max_cycle;Signal;HPM_P1;HPM_P2
2021/12/13 00:01:33;;;;;;;14.32;1.58;;;10.20;99.90;;;;;;5204575;28;20061;-80
2021/12/13 00:04:09;;;;;;;10.70;1.20;;;10.20;99.90;;;;;;5206743;28;20083;-87
2021/12/13 00:06:46;;;;;;;3.60;1.20;;;10.30;99.90;;;;;;5225080;28;20014;-80
2021/12/13 00:09:21;;;;;;;4.95;1.10;;;10.40;99.90;;;;;;5208596;28;20037;-88
2021/12/13 00:12:00;;;;;;;5.57;1.20;;;10.40;99.90;;;;;;5209806;28;20026;-80
2021/12/13 00:14:38;;;;;;;13.52;1.70;;;10.30;99.90;;;;;;5209600;28;20120;-86
2021/12/13 00:17:31;;;;;;;7.43;2.30;;;10.20;99.90;;;;;;5209758;28;20022;-80
2021/12/13 00:20:16;;;;;;;5.13;1.80;;;10.20;99.90;;;;;;5207872;28;20048;-82
2021/12/13 00:22:50;;;;;;;4.95;1.95;;;10.20;99.90;;;;;;5208202;28;20017;-88
2021/12/13 00:25:26;;;;;;;7.72;1.77;;;10.20;99.90;;;;;;5208235;28;20143;-79
2021/12/13 00:28:07;;;;;;;5.10;2.05;;;10.10;99.90;;;;;;5209512;28;20549;-87
2021/12/13 00:30:46;;;;;;;6.18;1.83;;;10.20;99.90;;;;;;5209393;28;20100;-88
2021/12/13 00:33:52;;;;;;;9.63;2.50;;;10.20;99.90;;;;;;5209431;28;20548;-87
2021/12/13 00:36:30;;;;;;;8.85;1.75;;;10.20;99.90;;;;;;5218787;28;20505;-80
2021/12/13 00:39:20;;;;;;;5.07;1.67;;;10.20;99.90;;;;;;5209029;28;20512;-80
2021/12/13 00:41:52;;;;;;;8.55;1.33;;;10.20;99.90;;;;;;5207855;28;20429;-80
2021/12/13 00:44:55;;;;;;;6.35;2.30;;;10.30;99.90;;;;;;5224462;28;20052;-83
2021/12/13 00:47:30;;;;;;;4.93;2.42;;;10.30;99.90;;;;;;5207631;28;20077;-80
2021/12/13 00:50:05;;;;;;;8.23;2.35;;;10.20;99.90;;;;;;5209032;28;20083;-79
2021/12/13 00:52:39;;;;;;;11.82;2.55;;;10.30;99.90;;;;;;5207868;28;20028;-89
2021/12/13 00:55:17;;;;;;;9.23;2.28;;;10.10;99.90;;;;;;5207632;28;20033;-79
2021/12/13 00:57:51;;;;;;;9.07;2.55;;;10.20;99.90;;;;;;5208995;28;20021;-89
2021/12/13 01:00:30;;;;;;;10.10;2.40;;;10.30;99.90;;;;;;5208866;28;20160;-89
2021/12/13 01:03:11;;;;;;;6.43;1.90;;;10.20;99.90;;;;;;5208820;28;20048;-80
2021/12/13 01:05:58;;;;;;;4.88;2.50;;;10.30;99.90;;;;;;5207532;28;20078;-89
2021/12/13 01:08:51;;;;;;;6.10;2.72;;;10.30;99.90;;;;;;5208733;28;20472;-79
2021/12/13 01:11:44;;;;;;;8.32;3.58;;;10.20;99.90;;;;;;5208704;28;20026;-79
2021/12/13 01:14:35;;;;;;;9.48;3.45;;;10.20;99.90;;;;;;5208271;28;20041;-88
2021/12/13 01:17:19;;;;;;;6.05;3.58;;;10.00;99.90;;;;;;5207302;28;20427;-81
2021/12/13 01:20:01;;;;;;;7.68;3.83;;;10.10;99.90;;;;;;5208550;28;20449;-80
2021/12/13 01:22:48;;;;;;;8.70;3.42;;;10.20;99.90;;;;;;5206988;28;20040;-80
2021/12/13 01:26:03;;;;;;;7.95;3.78;;;10.30;99.90;;;;;;5208413;28;20033;-79
2021/12/13 01:28:45;;;;;;;8.38;3.42;;;10.20;99.90;;;;;;5226989;28;20029;-80
2021/12/13 01:31:30;;;;;;;7.97;3.83;;;10.20;99.90;;;;;;5207161;28;20036;-80
2021/12/13 01:34:02;;;;;;;5.50;2.92;;;10.10;99.90;;;;;;5207010;28;20033;-79
2021/12/13 01:37:08;;;;;;;9.38;3.58;;;10.10;99.90;;;;;;5206828;28;20033;-79
2021/12/13 01:39:42;;;;;;;4.68;2.50;;;10.20;99.90;;;;;;5208087;28;20106;-79
2021/12/13 01:42:21;;;;;;;5.78;2.83;;;10.30;99.90;;;;;;5208264;28;20069;-81
2021/12/13 01:44:59;;;;;;;3.80;2.05;;;10.30;99.90;;;;;;5223494;28;20029;-79
2021/12/13 01:47:36;;;;;;;9.38;3.22;;;10.20;99.90;;;;;;5208160;28;20164;-79
2021/12/13 01:50:21;;;;;;;6.07;2.72;;;10.20;99.90;;;;;;5208136;28;20017;-80
2021/12/13 01:52:53;;;;;;;8.68;2.88;;;10.00;99.90;;;;;;5208126;28;20029;-78
2021/12/13 01:55:38;;;;;;;10.82;3.20;;;10.10;99.90;;;;;;5206621;28;20033;-78
2021/12/13 02:01:10;;;;;;;5.68;2.80;;;10.00;99.90;;;;;;5208062;28;20029;-77
2021/12/13 02:04:07;;;;;;;6.13;2.10;;;10.10;99.90;;;;;;5207764;28;20071;-77
2021/12/13 02:06:47;;;;;;;7.32;2.25;;;10.30;99.90;;;;;;5207624;28;20037;-79
2021/12/13 02:09:22;;;;;;;4.05;2.20;;;10.20;99.90;;;;;;5207684;28;20112;-84
2021/12/13 02:11:56;;;;;;;3.97;2.38;;;10.30;99.90;;;;;;5207667;28;20078;-84
2021/12/13 02:14:32;;;;;;;9.70;2.35;;;10.20;99.90;;;;;;5206292;28;20128;-79
2021/12/13 02:17:11;;;;;;;6.18;2.22;;;10.20;99.90;;;;;;5207548;28;20017;-81
2021/12/13 02:20:00;;;;;;;4.00;2.25;;;10.20;99.90;;;;;;5207564;28;20033;-82
2021/12/13 02:22:51;;;;;;;7.05;2.78;;;10.20;99.90;;;;;;5207343;28;20017;-78
2021/12/13 02:25:42;;;;;;;4.97;2.45;;;10.20;99.90;;;;;;5207400;28;20033;-77
2021/12/13 02:28:22;;;;;;;7.00;2.60;;;10.30;99.90;;;;;;5206639;28;20369;-77
2021/12/13 02:31:13;;;;;;;6.05;2.55;;;10.20;99.90;;;;;;5207356;28;20014;-77
2021/12/13 02:33:48;;;;;;;5.53;2.20;;;10.00;99.90;;;;;;5207273;28;20029;-77
2021/12/13 02:36:23;;;;;;;4.25;2.40;;;10.10;99.90;;;;;;5207331;28;20029;-78
2021/12/13 02:38:58;;;;;;;3.88;2.50;;;10.20;99.90;;;;;;5207492;28;20195;-77
2021/12/13 02:41:31;;;;;;;10.20;3.47;;;10.30;99.90;;;;;;5207268;28;20034;-78
2021/12/13 02:44:07;;;;;;;9.35;3.13;;;10.40;99.90;;;;;;5207070;28;20034;-78
2021/12/13 02:46:39;;;;;;;5.47;2.78;;;10.20;99.90;;;;;;5207060;28;20465;-79
2021/12/13 02:49:14;;;;;;;7.70;3.10;;;10.20;99.90;;;;;;5207018;28;20022;-78
2021/12/13 02:51:52;;;;;;;8.00;2.60;;;10.20;99.90;;;;;;5207218;28;20036;-78
2021/12/13 02:54:31;;;;;;;7.55;2.20;;;10.20;99.90;;;;;;5206922;28;20096;-80
2021/12/13 02:57:27;;;;;;;5.28;2.45;;;10.20;99.90;;;;;;5207029;28;20024;-78
2021/12/13 03:00:24;;;;;;;3.58;2.08;;;10.30;99.90;;;;;;5207122;28;20361;-77
2021/12/13 03:02:59;;;;;;;12.50;2.50;;;10.20;99.90;;;;;;5208547;28;20037;-78
2021/12/13 03:05:37;;;;;;;11.38;3.17;;;10.20;99.90;;;;;;5206803;28;20072;-79
2021/12/13 03:08:20;;;;;;;6.00;2.63;;;10.10;99.90;;;;;;5207076;28;20026;-80
2021/12/13 03:10:55;;;;;;;5.68;2.60;;;10.00;99.90;;;;;;5206880;28;20179;-78
2021/12/13 03:13:29;;;;;;;6.43;2.83;;;10.00;99.90;;;;;;5223062;28;20562;-79
2021/12/13 03:16:25;;;;;;;6.20;2.60;;;10.10;99.90;;;;;;5207889;28;20025;-78
2021/12/13 03:19:06;;;;;;;7.00;2.55;;;10.00;99.90;;;;;;5205393;28;20500;-86
2021/12/13 03:22:20;;;;;;;6.15;2.53;;;10.10;99.90;;;;;;5206649;28;20037;-77
2021/12/13 03:25:11;;;;;;;6.07;2.40;;;10.10;99.90;;;;;;5205099;28;20030;-77
2021/12/13 03:27:51;;;;;;;5.35;2.40;;;10.10;99.90;;;;;;5206814;28;20022;-78
2021/12/13 03:30:32;;;;;;;;;;;10.10;99.90;;;;;;5207043;28;20030;-81
2021/12/13 03:33:09;;;;;;;6.30;4.38;;;10.10;99.90;;;;;;5206589;28;19912;-77
2021/12/13 03:35:43;;;;;;;6.32;2.90;;;10.00;99.90;;;;;;5206530;28;20040;-78
2021/12/13 03:38:38;;;;;;;4.88;2.60;;;9.90;99.90;;;;;;5222524;28;20408;-80
2021/12/13 03:41:19;;;;;;;4.65;2.15;;;9.90;99.90;;;;;;5209469;28;20544;-77
2021/12/13 03:43:52;;;;;;;4.88;2.30;;;10.00;99.90;;;;;;5210254;28;20084;-78
2021/12/13 03:46:26;;;;;;;3.58;2.65;;;10.00;99.90;;;;;;5210321;28;20404;-78
2021/12/13 03:48:59;;;;;;;6.50;2.75;;;9.90;99.90;;;;;;5225668;28;20026;-79
2021/12/13 03:51:34;;;;;;;4.50;2.05;;;10.00;99.90;;;;;;5210419;28;20025;-78
2021/12/13 03:54:09;;;;;;;5.05;2.50;;;10.00;99.90;;;;;;5210348;28;20036;-79
2021/12/13 03:56:44;;;;;;;7.68;2.63;;;10.00;99.90;;;;;;5210379;28;20376;-78
2021/12/13 03:59:22;;;;;;;7.30;2.80;;;9.90;99.90;;;;;;5208981;28;20033;-79
2021/12/13 04:02:02;;;;;;;3.60;1.52;;;9.90;99.90;;;;;;5211927;28;20113;-77
2021/12/13 04:04:56;;;;;;;3.20;1.48;;;9.80;99.90;;;;;;5210206;28;20048;-77
2021/12/13 04:07:37;;;;;;;3.85;1.70;;;9.60;99.90;;;;;;5209979;28;20061;-77
2021/12/13 04:10:17;;;;;;;3.95;1.88;;;9.50;99.90;;;;;;5210252;28;20025;-78
2021/12/13 04:12:52;;;;;;;2.20;1.63;;;9.80;99.90;;;;;;5209933;28;20026;-77
2021/12/13 04:15:54;;;;;;;5.68;1.45;;;9.90;99.90;;;;;;5210099;28;20477;-79
2021/12/13 04:19:06;;;;;;;2.78;1.20;;;9.90;99.90;;;;;;5209979;28;20392;-77
2021/12/13 04:21:58;;;;;;;4.72;1.77;;;9.60;99.90;;;;;;5209572;28;20025;-77
2021/12/13 04:24:43;;;;;;;3.53;1.70;;;9.70;99.90;;;;;;5209818;28;20110;-77
2021/12/13 04:27:28;;;;;;;6.32;2.00;;;9.70;99.90;;;;;;5209702;28;20025;-77
2021/12/13 04:30:07;;;;;;;4.07;1.70;;;9.60;99.90;;;;;;5209786;28;20506;-78
2021/12/13 04:32:44;;;;;;;8.98;1.63;;;9.60;99.90;;;;;;5209572;28;20033;-78
2021/12/13 04:35:15;;;;;;;3.08;1.45;;;9.70;99.90;;;;;;5209580;28;20083;-76
2021/12/13 04:37:53;;;;;;;2.42;1.42;;;9.60;99.90;;;;;;5209397;28;20487;-77
2021/12/13 04:40:29;;;;;;;2.58;1.50;;;9.60;99.90;;;;;;5209274;28;20069;-77
2021/12/13 04:43:11;;;;;;;2.83;1.50;;;9.50;99.90;;;;;;5209397;28;20021;-77
2021/12/13 04:45:51;;;;;;;4.82;1.80;;;9.40;99.90;;;;;;5209450;28;20037;-77
2021/12/13 04:48:28;;;;;;;3.67;1.40;;;9.60;99.90;;;;;;5209612;28;20106;-77
2021/12/13 04:51:13;;;;;;;2.05;1.38;;;9.60;99.90;;;;;;5208347;28;20030;-77
2021/12/13 04:53:47;;;;;;;5.78;1.70;;;9.60;99.90;;;;;;5209337;28;20030;-77
2021/12/13 04:56:26;;;;;;;3.05;1.60;;;9.60;99.90;;;;;;5224694;28;20415;-76
2021/12/13 04:58:59;;;;;;;4.78;1.80;;;9.50;99.90;;;;;;5209109;28;20034;-76
2021/12/13 05:01:31;;;;;;;2.22;1.50;;;9.70;99.90;;;;;;5208986;28;20022;-80
2021/12/13 05:04:05;;;;;;;3.15;1.13;;;9.70;99.90;;;;;;5209066;28;20039;-77
2021/12/13 05:06:40;;;;;;;3.35;1.40;;;9.60;99.90;;;;;;5208866;28;20053;-77
2021/12/13 05:09:14;;;;;;;1.95;1.58;;;9.40;99.90;;;;;;5208901;28;20029;-77
2021/12/13 05:12:02;;;;;;;2.17;1.42;;;9.40;99.90;;;;;;5208932;28;20382;-85
2021/12/13 05:14:45;;;;;;;4.25;1.50;;;9.60;99.90;;;;;;5208886;28;20086;-77
2021/12/13 05:17:23;;;;;;;2.65;1.48;;;9.60;99.90;;;;;;5208849;28;20029;-77
2021/12/13 05:20:07;;;;;;;2.80;1.45;;;9.60;99.90;;;;;;5208709;28;20022;-77
2021/12/13 05:22:52;;;;;;;6.25;1.60;;;9.60;99.90;;;;;;5208610;28;20415;-77
2021/12/13 05:25:49;;;;;;;3.03;1.60;;;9.70;99.90;;;;;;5208777;28;20369;-78
2021/12/13 05:28:25;;;;;;;4.72;1.60;;;9.50;99.90;;;;;;5208538;28;20487;-77
2021/12/13 05:31:04;;;;;;;5.28;1.80;;;9.60;99.90;;;;;;5208649;28;20472;-77
2021/12/13 05:33:37;;;;;;;5.32;1.48;;;9.60;99.90;;;;;;5208387;28;20052;-77
2021/12/13 05:36:18;;;;;;;4.18;1.40;;;9.40;99.90;;;;;;5208340;28;20061;-80
2021/12/13 05:39:01;;;;;;;2.50;1.35;;;9.60;99.90;;;;;;5208164;28;20476;-82
2021/12/13 05:41:32;;;;;;;4.30;1.55;;;9.70;99.90;;;;;;5208199;28;20040;-77
2021/12/13 05:44:08;;;;;;;2.78;1.33;;;9.60;99.90;;;;;;5208254;28;20014;-77
2021/12/13 05:46:44;;;;;;;4.22;1.70;;;9.50;99.90;;;;;;5208219;28;20104;-78
2021/12/13 05:49:18;;;;;;;4.55;1.70;;;9.60;99.90;;;;;;5208320;28;20100;-76
2021/12/13 05:51:54;;;;;;;6.38;3.10;;;9.70;99.90;;;;;;5208187;28;20041;-77
2021/12/13 05:54:33;;;;;;;9.38;3.50;;;9.60;99.90;;;;;;5208095;28;20048;-86
2021/12/13 05:57:24;;;;;;;9.70;6.55;;;9.70;99.90;;;;;;5208248;28;20029;-88
2021/12/13 06:00:32;;;;;;;9.70;5.75;;;9.70;99.90;;;;;;5208111;28;20040;-77
2021/12/13 06:03:17;;;;;;;5.63;3.45;;;9.80;99.90;;;;;;5208021;28;20025;-83
2021/12/13 06:05:52;;;;;;;7.63;5.45;;;9.90;99.90;;;;;;5207775;28;20029;-76
2021/12/13 06:08:34;;;;;;;7.97;6.30;;;9.90;99.90;;;;;;5209040;28;20115;-77
2021/12/13 06:11:15;;;;;;;5.85;3.63;;;9.90;99.90;;;;;;5208343;28;20029;-77
2021/12/13 06:13:46;;;;;;;8.55;5.00;;;9.90;99.90;;;;;;5223368;28;20440;-77
2021/12/13 06:16:23;;;;;;;12.02;6.32;;;9.90;99.90;;;;;;5207542;28;20032;-81
2021/12/13 06:19:19;;;;;;;8.80;5.00;;;9.80;99.90;;;;;;5207629;28;20049;-78
2021/12/13 06:22:08;;;;;;;8.77;5.25;;;9.90;99.90;;;;;;5207347;28;20033;-77
2021/12/13 06:24:51;;;;;;;15.75;13.05;;;9.80;99.90;;;;;;5222664;28;20056;-76
2021/12/13 06:27:27;;;;;;;14.82;9.27;;;9.80;99.90;;;;;;5207171;28;20029;-77
2021/12/13 06:30:23;;;;;;;10.10;5.60;;;9.90;99.90;;;;;;5207375;28;20033;-77
2021/12/13 06:32:57;;;;;;;11.82;6.10;;;9.80;99.90;;;;;;5207264;28;20014;-77
2021/12/13 06:35:43;;;;;;;14.52;6.50;;;9.60;99.90;;;;;;5207396;28;20029;-77
2021/12/13 06:38:20;;;;;;;15.70;8.55;;;9.80;99.90;;;;;;5205693;28;20384;-77
2021/12/13 06:41:17;;;;;;;8.50;5.80;;;9.70;99.90;;;;;;5206053;28;20033;-77
2021/12/13 06:44:16;;;;;;;6.97;4.20;;;9.70;99.90;;;;;;5207307;28;20040;-77
2021/12/13 06:47:01;;;;;;;13.25;5.80;;;9.70;99.90;;;;;;5207198;28;20029;-77
2021/12/13 06:49:48;;;;;;;12.63;5.50;;;9.70;99.90;;;;;;5207047;28;20480;-76
2021/12/13 06:52:26;;;;;;;9.70;5.15;;;9.70;99.90;;;;;;5205330;28;20116;-77
2021/12/13 06:55:08;;;;;;;11.18;6.38;;;9.60;99.90;;;;;;5206941;28;20471;-77
2021/12/13 06:57:49;;;;;;;10.88;5.07;;;9.60;99.90;;;;;;5207112;28;20022;-77
2021/12/13 07:00:20;;;;;;;14.35;5.63;;;9.70;99.90;;;;;;5207026;28;20052;-78
2021/12/13 07:02:54;;;;;;;8.45;4.88;;;9.70;99.90;;;;;;5206971;28;20021;-77
2021/12/13 07:05:41;;;;;;;10.82;4.85;;;9.60;99.90;;;;;;5206966;28;20468;-76
2021/12/13 07:08:21;;;;;;;9.88;4.72;;;9.60;99.90;;;;;;5222077;28;20074;-77
2021/12/13 07:10:52;;;;;;;9.55;5.57;;;9.60;99.90;;;;;;5206899;28;20041;-77
2021/12/13 07:13:59;;;;;;;9.57;5.72;;;9.60;99.90;;;;;;5208229;28;20025;-76
2021/12/13 07:16:34;;;;;;;13.25;5.93;;;9.70;99.90;;;;;;5209585;28;20096;-77
2021/12/13 07:19:24;;;;;;;8.77;5.88;;;9.60;99.90;;;;;;5209783;28;20511;-80
2021/12/13 07:21:57;;;;;;;;;;;9.70;99.90;;;;;;5211232;28;20124;-77
2021/12/13 07:24:42;;;;;;;12.13;4.95;;;9.70;99.90;;;;;;5209373;28;19901;-76
2021/12/13 07:27:18;;;;;;;6.18;3.75;;;9.70;99.90;;;;;;5209820;28;20380;-77
2021/12/13 07:29:59;;;;;;;5.43;3.33;;;9.70;99.90;;;;;;5210916;28;20092;-76
2021/12/13 07:32:39;;;;;;;11.68;9.45;;;9.70;99.90;;;;;;5210821;28;20423;-77
2021/12/13 07:35:24;;;;;;;10.65;8.15;;;9.70;99.90;;;;;;5210660;28;20037;-76
2021/12/13 07:38:09;;;;;;;4.88;2.95;;;9.70;99.90;;;;;;5210340;28;20033;-76
2021/12/13 07:41:00;;;;;;;11.07;4.20;;;9.70;99.90;;;;;;5209356;28;20099;-77
2021/12/13 07:43:42;;;;;;;6.88;3.88;;;9.70;99.90;;;;;;5210538;28;20040;-77
2021/12/13 07:46:21;;;;;;;8.68;3.95;;;9.80;99.90;;;;;;5209294;28;20040;-78
2021/12/13 07:48:57;;;;;;;13.07;4.30;;;9.70;99.90;;;;;;5209189;28;20092;-79
2021/12/13 07:51:48;;;;;;;13.52;5.25;;;9.80;99.90;;;;;;5209253;28;20026;-76
2021/12/13 07:54:19;;;;;;;9.25;4.00;;;9.80;99.90;;;;;;5210267;28;20037;-79
2021/12/13 07:56:58;;;;;;;11.65;4.50;;;9.80;99.90;;;;;;5225821;28;20026;-77
2021/12/13 07:59:36;;;;;;;9.45;3.22;;;9.70;99.90;;;;;;5210313;28;20552;-76
2021/12/13 08:02:16;;;;;;;8.68;2.70;;;9.70;99.90;;;;;;5210200;28;20025;-77
2021/12/13 08:04:47;;;;;;;;;;;9.80;99.90;;;;;;5210608;28;20049;-77
2021/12/13 08:07:27;;;;;;;12.38;6.05;;;9.80;99.90;;;;;;5208546;28;19905;-77
2021/12/13 08:10:06;;;;;;;8.77;3.72;;;9.80;99.90;;;;;;5210079;28;20384;-77
2021/12/13 08:12:41;;;;;;;11.57;3.97;;;9.80;99.90;;;;;;5210120;28;20018;-77
2021/12/13 08:15:22;;;;;;;10.80;4.43;;;9.80;99.90;;;;;;5208677;28;20045;-77
2021/12/13 08:17:58;;;;;;;9.68;4.57;;;9.90;99.90;;;;;;5209950;28;20465;-77
2021/12/13 08:20:40;;;;;;;6.68;3.50;;;9.80;99.90;;;;;;5209967;28;20502;-77
2021/12/13 08:23:16;;;;;;;8.90;3.65;;;9.70;99.90;;;;;;5209853;28;20034;-77
2021/12/13 08:25:52;;;;;;;9.93;3.95;;;9.80;99.90;;;;;;5208265;28;20021;-77
2021/12/13 08:28:39;;;;;;;10.07;4.53;;;9.70;99.90;;;;;;5209733;28;20083;-78
2021/12/13 08:31:21;;;;;;;14.05;4.72;;;9.80;99.90;;;;;;5209856;28;20025;-77
2021/12/13 08:33:59;;;;;;;11.35;3.28;;;9.80;99.90;;;;;;5209486;28;20381;-77
2021/12/13 08:36:39;;;;;;;10.90;4.95;;;9.90;99.90;;;;;;5209691;28;20084;-76
2021/12/13 08:39:17;;;;;;;9.73;4.90;;;9.80;99.90;;;;;;5208644;28;20069;-77
2021/12/13 08:42:00;;;;;;;19.17;5.13;;;9.90;99.90;;;;;;5209599;28;20037;-77
2021/12/13 08:44:35;;;;;;;12.30;4.40;;;10.00;99.90;;;;;;5209447;28;20057;-78
2021/12/13 08:47:20;;;;;;;7.68;4.28;;;10.00;99.90;;;;;;5209439;28;20025;-77
2021/12/13 08:50:04;;;;;;;10.38;6.32;;;9.90;99.90;;;;;;5209398;28;20402;-76
2021/12/13 08:52:41;;;;;;;9.15;4.32;;;9.80;99.90;;;;;;5209188;28;20025;-76
2021/12/13 08:55:11;;;;;;;18.35;8.05;;;9.90;99.90;;;;;;5209221;28;20041;-78
2021/12/13 08:57:52;;;;;;;11.38;5.32;;;9.90;99.90;;;;;;5209518;28;20043;-78
2021/12/13 09:00:32;;;;;;;9.15;5.28;;;10.00;99.90;;;;;;5208788;28;20034;-76
2021/12/13 09:03:38;;;;;;;10.75;4.20;;;10.00;99.90;;;;;;5209993;28;20076;-77
2021/12/13 09:06:19;;;;;;;7.88;3.13;;;10.10;99.90;;;;;;5208423;28;20124;-76
2021/12/13 09:09:05;;;;;;;13.38;4.20;;;10.20;99.90;;;;;;5209147;28;20037;-79
2021/12/13 09:11:58;;;;;;;6.95;3.47;;;10.20;99.90;;;;;;5209032;28;20032;-77
2021/12/13 09:14:36;;;;;;;5.18;2.90;;;10.20;99.90;;;;;;5202416;28;20041;-83
2021/12/13 09:17:26;;;;;;;7.07;2.20;;;10.20;99.90;;;;;;5208761;28;20028;-77
2021/12/13 09:20:21;;;;;;;8.25;3.28;;;10.20;99.90;;;;;;5208070;28;20029;-76
2021/12/13 09:23:16;;;;;;;12.13;3.90;;;10.30;99.90;;;;;;5208546;28;20052;-84
2021/12/13 09:26:10;;;;;;;5.93;2.78;;;10.20;99.90;;;;;;5210653;28;20034;-85
2021/12/13 09:28:47;;;;;;;5.95;2.95;;;10.20;99.90;;;;;;5208824;28;20033;-79
2021/12/13 09:31:40;;;;;;;5.60;2.50;;;10.20;99.90;;;;;;5208796;28;20018;-76
2021/12/13 09:34:20;;;;;;;7.60;3.20;;;10.20;99.90;;;;;;5207455;28;20077;-81
2021/12/13 09:36:54;;;;;;;6.80;3.67;;;10.10;99.90;;;;;;5207312;28;20032;-77
2021/12/13 09:39:28;;;;;;;7.53;3.30;;;10.20;99.90;;;;;;5208426;28;20409;-76
2021/12/13 09:42:01;;;;;;;6.20;3.33;;;10.10;99.90;;;;;;5208048;28;20029;-76
2021/12/13 09:44:45;;;;;;;7.65;2.78;;;10.20;99.90;;;;;;5208562;28;20407;-75
2021/12/13 09:47:23;;;;;;;7.32;3.55;;;10.20;99.90;;;;;;5207323;28;20487;-76
2021/12/13 09:49:57;;;;;;;7.65;3.67;;;10.30;99.90;;;;;;5208531;28;20021;-77
2021/12/13 09:52:32;;;;;;;6.20;3.00;;;10.30;99.90;;;;;;5207121;28;20147;-76
2021/12/13 09:55:31;;;;;;;6.72;4.53;;;10.20;99.90;;;;;;5206945;28;20057;-75
2021/12/13 09:58:12;;;;;;;8.32;2.50;;;10.00;99.90;;;;;;5208595;28;20029;-77
2021/12/13 10:00:49;;;;;;;8.90;2.80;;;9.90;99.90;;;;;;5208317;28;20017;-76
2021/12/13 10:03:44;;;;;;;6.47;3.08;;;10.00;99.90;;;;;;5207856;28;20032;-76
2021/12/13 10:06:21;;;;;;;5.93;3.05;;;9.90;99.90;;;;;;5189971;28;20072;-77
2021/12/13 10:09:13;;;;;;;4.93;2.80;;;9.80;99.90;;;;;;5206827;28;20025;-76
2021/12/13 10:11:52;;;;;;;8.15;2.95;;;9.80;99.90;;;;;;5206563;28;20038;-76
2021/12/13 10:14:29;;;;;;;3.80;2.10;;;9.70;99.90;;;;;;5207934;28;20041;-76
2021/12/13 10:17:02;;;;;;;4.80;2.20;;;9.70;99.90;;;;;;5208299;28;20029;-77
2021/12/13 10:19:40;;;;;;;6.13;2.15;;;9.60;99.90;;;;;;5208096;28;20033;-77
2021/12/13 10:22:14;;;;;;;2.95;1.58;;;9.60;99.90;;;;;;5208183;28;20472;-77
2021/12/13 10:24:53;;;;;;;4.22;2.40;;;9.40;99.90;;;;;;5207594;28;20384;-77
2021/12/13 10:27:24;;;;;;;5.28;1.30;;;9.50;99.90;;;;;;5207891;28;20022;-77
2021/12/13 10:29:59;;;;;;;5.50;1.70;;;9.40;99.90;;;;;;5206558;28;20029;-77
2021/12/13 10:32:34;;;;;;;5.22;2.25;;;9.50;99.90;;;;;;5207943;28;20031;-76
2021/12/13 10:35:30;;;;;;;5.10;1.98;;;9.50;99.90;;;;;;5207601;28;20034;-77
2021/12/13 10:38:06;;;;;;;4.25;3.22;;;9.40;99.90;;;;;;5206954;28;20489;-77
2021/12/13 10:40:44;;;;;;;11.93;7.55;;;9.20;99.90;;;;;;5205889;28;20156;-76
2021/12/13 10:43:22;;;;;;;5.18;2.63;;;9.20;99.90;;;;;;5206853;28;20396;-76
2021/12/13 10:46:04;;;;;;;6.60;2.80;;;9.10;99.90;;;;;;5205678;28;20503;-76
2021/12/13 10:48:44;;;;;;;5.72;3.33;;;9.10;99.90;;;;;;5206291;28;20372;-77
2021/12/13 10:51:19;;;;;;;7.80;3.50;;;9.20;99.90;;;;;;5222536;28;20026;-75
2021/12/13 10:53:52;;;;;;;9.13;6.07;;;9.00;99.90;;;;;;5206870;28;20036;-77
2021/12/13 10:56:30;;;;;;;9.13;4.53;;;9.20;99.90;;;;;;5206649;28;20029;-76
2021/12/13 10:59:05;;;;;;;5.28;3.35;;;8.90;99.90;;;;;;5206945;28;20025;-76
2021/12/13 11:01:42;;;;;;;9.20;3.60;;;8.80;99.90;;;;;;5206872;28;20105;-76
2021/12/13 11:04:28;;;;;;;14.35;4.40;;;8.90;99.90;;;;;;5206822;28;20163;-77
2021/12/13 11:07:02;;;;;;;9.40;4.30;;;8.80;99.90;;;;;;5222019;28;20028;-83
2021/12/13 11:09:34;;;;;;;9.32;4.93;;;8.90;99.90;;;;;;5205505;28;20492;-77
2021/12/13 11:12:16;;;;;;;9.95;5.07;;;8.90;99.90;;;;;;5205470;28;20017;-76
2021/12/13 11:14:51;;;;;;;6.97;4.53;;;9.00;99.90;;;;;;5206782;28;20037;-77
2021/12/13 11:17:25;;;;;;;11.23;3.65;;;8.70;99.90;;;;;;5206911;28;20104;-76
2021/12/13 11:19:59;;;;;;;7.30;3.67;;;8.80;99.90;;;;;;5206766;28;20086;-77
2021/12/13 11:22:32;;;;;;;6.60;3.40;;;8.70;99.90;;;;;;5206547;28;20468;-76
2021/12/13 11:25:17;;;;;;;9.02;3.25;;;8.50;99.90;;;;;;5206464;28;20029;-77
2021/12/13 11:27:49;;;;;;;11.32;4.05;;;8.50;99.90;;;;;;5206687;28;20030;-76
2021/12/13 11:30:27;;;;;;;8.20;3.85;;;8.60;99.90;;;;;;5206655;28;20045;-76
2021/12/13 11:32:58;;;;;;;7.85;5.28;;;8.60;99.90;;;;;;5206594;28;20112;-76
2021/12/13 11:35:46;;;;;;;13.05;4.55;;;8.60;99.90;;;;;;5206380;28;20174;-75
2021/12/13 11:38:31;;;;;;;12.90;5.72;;;8.50;99.90;;;;;;5206421;28;20029;-76
2021/12/13 11:41:11;;;;;;;11.45;4.82;;;8.50;99.90;;;;;;5205561;28;20042;-76
2021/12/13 11:44:32;;;;;;;12.50;5.30;;;8.40;99.90;;;;;;5206337;28;20034;-76
2021/12/13 11:47:25;;;;;;;10.32;4.30;;;8.40;99.90;;;;;;5204496;28;20388;-76
2021/12/13 11:50:40;;;;;;;9.75;4.53;;;8.20;99.90;;;;;;5206403;28;20026;-76
2021/12/13 11:54:05;;;;;;;11.32;4.88;;;8.30;99.90;;;;;;5213032;28;20029;-76
2021/12/13 11:57:01;;;;;;;11.43;4.90;;;8.30;99.90;;;;;;5224681;28;20039;-77
2021/12/13 11:59:58;;;;;;;15.65;4.93;;;8.30;99.90;;;;;;5206977;28;20036;-76
2021/12/13 12:02:47;;;;;;;9.63;5.68;;;8.40;99.90;;;;;;5210197;28;20032;-76
2021/12/13 12:05:42;;;;;;;9.18;3.72;;;8.30;99.90;;;;;;5210094;28;20095;-76
2021/12/13 12:08:39;;;;;;;9.50;4.05;;;8.30;99.90;;;;;;5209933;28;20030;-76
2021/12/13 12:11:29;;;;;;;6.40;4.03;;;8.30;99.90;;;;;;5210128;28;20030;-77
2021/12/13 12:14:09;;;;;;;8.68;4.20;;;8.30;99.90;;;;;;5209932;28;20065;-76
2021/12/13 12:16:44;;;;;;;6.93;3.65;;;8.30;99.90;;;;;;5209983;28;20045;-76
2021/12/13 12:19:24;;;;;;;7.18;4.10;;;8.30;99.90;;;;;;5209838;28;20022;-76
2021/12/13 12:22:07;;;;;;;8.35;4.10;;;8.50;99.90;;;;;;5209777;28;20029;-76
2021/12/13 12:24:42;;;;;;;8.02;3.97;;;8.20;99.90;;;;;;5209727;28;20109;-76
2021/12/13 12:30:13;;;;;;;5.45;3.33;;;8.30;99.90;;;;;;5209061;28;20021;-76
2021/12/13 12:32:54;;;;;;;7.90;3.90;;;8.20;99.90;;;;;;5210258;28;20045;-77
2021/12/13 12:35:36;;;;;;;10.07;4.47;;;8.30;99.90;;;;;;5209681;28;20115;-76
2021/12/13 12:38:51;;;;;;;11.55;4.05;;;8.20;99.90;;;;;;5209371;28;20034;-76
2021/12/13 12:46:40;;;;;;;9.00;4.78;;;8.40;99.90;;;;;;5111349;22;20369;-80
2021/12/13 12:49:15;;;;;;;13.32;5.65;;;8.40;99.90;;;;;;5188937;28;20040;-79
2021/12/13 12:51:46;;;;;;;10.75;5.13;;;8.30;99.90;;;;;;5171189;28;20053;-80
2021/12/13 12:54:19;;;;;;;7.03;4.90;;;8.30;99.90;;;;;;5188673;28;20062;-78
2021/12/13 12:59:51;;;;;;;9.75;4.47;;;8.50;99.90;;;;;;5182844;28;20369;-79
2021/12/13 13:02:24;;;;;;;7.88;4.10;;;8.30;99.90;;;;;;5188549;28;20033;-78
2021/12/13 13:07:36;;;;;;;7.88;4.00;;;8.40;99.90;;;;;;5187522;28;20033;-78
2021/12/13 13:13:10;;;;;;;11.18;5.22;;;8.40;99.90;;;;;;5188302;28;20030;-78
2021/12/13 13:15:49;;;;;;;13.75;5.57;;;8.30;99.90;;;;;;5188028;28;20436;-80
2021/12/13 13:18:24;;;;;;;18.15;7.88;;;8.30;99.90;;;;;;5188257;28;20025;-79
2021/12/13 13:21:01;;;;;;;15.05;5.70;;;8.30;99.90;;;;;;5188023;28;20455;-78
2021/12/13 13:23:44;;;;;;;14.88;5.03;;;8.30;99.90;;;;;;5188169;28;20084;-79
2021/12/13 13:26:17;;;;;;;13.88;6.18;;;8.20;99.90;;;;;;5188136;28;20030;-78
2021/12/13 13:28:53;;;;;;;16.35;6.20;;;8.20;99.90;;;;;;5187980;28;20061;-79
2021/12/13 13:31:42;;;;;;;8.65;5.72;;;8.40;99.90;;;;;;5187954;28;20037;-79
2021/12/13 13:34:17;;;;;;;13.32;5.43;;;8.40;99.90;;;;;;5187785;28;20062;-79
2021/12/13 13:37:05;;;;;;;15.07;5.93;;;8.40;99.90;;;;;;5188060;28;20495;-79
2021/12/13 13:39:51;;;;;;;14.02;5.95;;;8.30;99.90;;;;;;5187818;28;20064;-79
2021/12/13 13:42:29;;;;;;;13.38;5.72;;;8.40;99.90;;;;;;5187825;28;20076;-79
2021/12/13 13:45:06;;;;;;;14.18;5.55;;;8.30;99.90;;;;;;5187272;28;20045;-79
2021/12/13 13:47:44;;;;;;;10.82;5.40;;;8.30;99.90;;;;;;5187469;28;20432;-78
2021/12/13 13:50:24;;;;;;;13.38;6.00;;;8.30;99.90;;;;;;5187648;28;20033;-79
2021/12/13 13:52:57;;;;;;;;;;;8.30;99.90;;;;;;5188033;28;20388;-79
2021/12/13 13:55:31;;;;;;;12.95;5.95;;;8.20;99.90;;;;;;5187205;28;19914;-78
2021/12/13 13:58:07;;;;;;;10.88;5.35;;;8.20;99.90;;;;;;5187502;28;20022;-79
2021/12/13 14:01:09;;;;;;;16.48;6.47;;;8.20;99.90;;;;;;5187426;28;20113;-79
2021/12/13 14:03:43;;;;;;;10.35;5.75;;;8.20;99.90;;;;;;5183279;28;20042;-79
2021/12/13 14:06:18;;;;;;;11.93;5.43;;;8.30;99.90;;;;;;5187468;28;20033;-80
2021/12/13 14:11:23;;;;;;;9.40;5.30;;;8.20;99.90;;;;;;5186445;28;20034;-79
2021/12/13 14:14:00;;;;;;;14.20;5.60;;;8.30;99.90;;;;;;5186930;28;20026;-78
2021/12/13 14:21:36;;;;;;;9.10;5.75;;;8.20;99.90;;;;;;5186329;28;20650;-79
2021/12/13 14:24:09;;;;;;;10.75;6.40;;;8.30;99.90;;;;;;5187007;28;20022;-79
2021/12/13 14:29:12;;;;;;;15.38;7.47;;;8.20;99.90;;;;;;5186422;28;20493;-78
2021/12/13 14:39:50;;;;;;;11.55;5.78;;;8.40;99.90;;;;;;5186024;28;20069;-79
2021/12/13 14:42:24;;;;;;;9.38;6.60;;;8.20;99.90;;;;;;5186702;28;20033;-78
2021/12/13 14:45:02;;;;;;;9.63;6.25;;;8.30;99.90;;;;;;5186396;28;20064;-78